createdAt,value
2023-08-03T00:00:24.234Z,0.10
2023-08-03T00:02:50.767Z,0.15
2023-08-03T00:05:18.631Z,0.28
2023-08-03T00:07:48.379Z,0.08
2023-08-03T00:10:15.978Z,0.10
2023-08-03T00:12:43.417Z,0.20
2023-08-03T00:15:10.396Z,0.13
2023-08-03T00:17:38.108Z,0.30
2023-08-03T00:20:05.996Z,0.25
2023-08-03T00:22:33.311Z,0.20
2023-08-03T00:24:59.774Z,0.20
2023-08-03T00:27:26.764Z,0.10
2023-08-03T00:29:53.331Z,0.10
2023-08-03T00:32:19.896Z,0.10
2023-08-03T00:34:46.321Z,0.10
2023-08-03T00:37:13.679Z,0.22
2023-08-03T00:39:40.145Z,0.20
2023-08-03T00:42:07.183Z,0.10
2023-08-03T00:44:33.850Z,0.10
2023-08-03T00:47:00.830Z,0.30
2023-08-03T00:49:29.036Z,0.20
2023-08-03T00:51:59.364Z,0.08
2023-08-03T00:54:25.850Z,0.10
2023-08-03T00:56:52.447Z,0.10
2023-08-03T00:59:19.249Z,0.50
2023-08-03T01:01:46.220Z,0.22
2023-08-03T01:04:12.830Z,0.15
2023-08-03T01:06:39.364Z,0.10
2023-08-03T01:09:06.207Z,0.20
2023-08-03T01:11:32.968Z,0.20
2023-08-03T01:13:59.996Z,0.30
2023-08-03T01:16:28.184Z,0.22
2023-08-03T01:18:55.361Z,0.20
2023-08-03T01:21:22.955Z,0.10
2023-08-03T01:23:49.705Z,0.22
2023-08-03T01:26:16.276Z,0.20
2023-08-03T01:28:42.728Z,0.20
2023-08-03T01:31:09.398Z,0.38
2023-08-03T01:33:35.942Z,0.30
2023-08-03T01:36:03.599Z,0.30
2023-08-03T01:38:30.113Z,0.20
2023-08-03T01:40:56.537Z,0.40
2023-08-03T01:43:22.962Z,0.30
2023-08-03T01:45:49.366Z,0.30
2023-08-03T01:48:15.846Z,0.22
2023-08-03T01:50:42.556Z,0.10
2023-08-03T01:53:08.933Z,0.20
2023-08-03T01:55:35.431Z,0.20
2023-08-03T01:58:02.660Z,0.30
2023-08-03T02:00:29.038Z,0.32
2023-08-03T02:02:55.471Z,0.17
2023-08-03T02:05:21.998Z,0.28
2023-08-03T02:07:55.408Z,0.20
2023-08-03T02:10:24.012Z,0.30
2023-08-03T02:12:50.952Z,0.22
2023-08-03T02:15:17.856Z,0.20
2023-08-03T02:17:44.975Z,0.10
2023-08-03T02:20:12.084Z,0.30
2023-08-03T02:22:38.564Z,0.20
2023-08-03T02:25:05.359Z,0.40
2023-08-03T02:27:31.746Z,0.30
2023-08-03T02:29:58.221Z,0.20
2023-08-03T02:32:26.303Z,0.30
2023-08-03T02:34:52.862Z,0.30
2023-08-03T02:37:19.327Z,0.30
2023-08-03T02:39:45.712Z,0.13
2023-08-03T02:42:12.164Z,0.35
2023-08-03T02:44:38.556Z,0.17
2023-08-03T02:47:04.998Z,0.40
2023-08-03T02:49:31.443Z,0.20
2023-08-03T02:51:57.826Z,0.30
2023-08-03T02:54:24.246Z,0.35
2023-08-03T02:56:50.626Z,0.35
2023-08-03T02:59:19.659Z,0.30
2023-08-03T03:01:46.721Z,0.30
2023-08-03T03:04:13.461Z,0.10
2023-08-03T03:06:40.173Z,0.22
2023-08-03T03:09:06.584Z,0.40
2023-08-03T03:11:32.979Z,0.20
2023-08-03T03:13:59.382Z,0.20
2023-08-03T03:16:27.113Z,0.28
2023-08-03T03:18:53.764Z,0.25
2023-08-03T03:21:21.525Z,0.20
2023-08-03T03:23:48.566Z,0.15
2023-08-03T03:26:15.005Z,0.20
2023-08-03T03:28:42.196Z,0.28
2023-08-03T03:31:09.303Z,0.17
2023-08-03T03:33:35.804Z,0.20
2023-08-03T03:36:02.333Z,0.20
2023-08-03T03:38:28.707Z,0.25
2023-08-03T03:40:55.085Z,0.10
2023-08-03T03:43:21.581Z,0.13
2023-08-03T03:45:48.054Z,0.20
2023-08-03T03:48:14.552Z,0.10
2023-08-03T03:50:41.222Z,0.15
2023-08-03T03:53:07.671Z,0.50
2023-08-03T03:55:34.232Z,0.20
2023-08-03T03:58:01.704Z,0.15
2023-08-03T04:00:28.214Z,0.10
2023-08-03T04:02:54.799Z,0.20
2023-08-03T04:05:21.360Z,0.10
2023-08-03T04:07:48.155Z,0.20
2023-08-03T04:10:14.585Z,0.20
2023-08-03T04:12:41.135Z,0.20
2023-08-03T04:15:07.985Z,0.17
2023-08-03T04:17:35.124Z,0.17
2023-08-03T04:20:01.587Z,0.10
2023-08-03T04:22:27.989Z,0.10
2023-08-03T04:24:54.393Z,0.20
2023-08-03T04:27:20.763Z,0.10
2023-08-03T04:29:47.304Z,0.00
2023-08-03T04:32:13.708Z,0.20
2023-08-03T04:34:40.567Z,0.10
2023-08-03T04:37:06.980Z,0.13
2023-08-03T04:39:33.423Z,0.20
2023-08-03T04:41:59.844Z,0.10
2023-08-03T04:44:26.471Z,0.10
2023-08-03T04:46:53.038Z,0.13
2023-08-03T04:49:19.574Z,0.10
2023-08-03T04:51:46.262Z,0.20
2023-08-03T04:54:14.491Z,0.10
2023-08-03T04:56:40.918Z,0.10
2023-08-03T04:59:07.365Z,0.20
2023-08-03T05:01:33.878Z,0.20
2023-08-03T05:04:03.146Z,0.20
2023-08-03T05:06:30.048Z,0.08
2023-08-03T05:08:56.942Z,0.10
2023-08-03T05:11:23.387Z,0.05
2023-08-03T05:13:49.780Z,0.22
2023-08-03T05:16:21.120Z,0.00
2023-08-03T05:18:47.570Z,0.10
2023-08-03T05:21:14.060Z,0.00
2023-08-03T05:23:40.823Z,0.15
2023-08-03T05:26:07.216Z,0.00
2023-08-03T05:28:33.860Z,0.10
2023-08-03T05:31:00.359Z,0.10
2023-08-03T05:33:29.750Z,0.20
2023-08-03T05:35:56.220Z,0.20
2023-08-03T05:38:22.612Z,0.10
2023-08-03T05:40:49.064Z,0.17
2023-08-03T05:43:15.567Z,0.10
2023-08-03T05:45:44.240Z,0.20
2023-08-03T05:48:19.585Z,0.10
2023-08-03T05:50:48.396Z,0.20
2023-08-03T05:53:15.577Z,0.10
2023-08-03T05:55:43.017Z,0.10
2023-08-03T05:58:14.985Z,0.28
2023-08-03T06:00:45.410Z,0.10
2023-08-03T06:03:14.178Z,0.10
2023-08-03T06:05:47.003Z,0.10
2023-08-03T06:08:16.872Z,0.10
2023-08-03T06:10:44.598Z,0.10
2023-08-03T06:13:14.125Z,0.25
2023-08-03T06:15:42.293Z,0.10
2023-08-03T06:18:16.817Z,0.13
2023-08-03T06:20:49.271Z,0.10
2023-08-03T06:23:45.129Z,0.03
2023-08-03T06:26:16.162Z,0.10
2023-08-03T06:28:44.115Z,0.10
2023-08-03T06:31:23.658Z,0.20
2023-08-03T06:33:50.304Z,0.30
2023-08-03T06:36:27.771Z,0.28
2023-08-03T06:38:58.226Z,0.55
2023-08-03T06:41:25.847Z,0.10
2023-08-03T06:43:56.409Z,0.38
2023-08-03T06:46:24.095Z,0.00
2023-08-03T06:48:51.941Z,0.10
2023-08-03T06:51:18.747Z,0.30
2023-08-03T06:53:45.336Z,0.28
2023-08-03T06:56:11.760Z,0.30
2023-08-03T06:58:38.247Z,0.30
2023-08-03T07:01:04.925Z,0.20
2023-08-03T07:03:31.736Z,0.10
2023-08-03T07:05:58.791Z,0.20
2023-08-03T07:08:25.198Z,0.10
2023-08-03T07:10:51.588Z,0.10
2023-08-03T07:13:18.052Z,0.10
2023-08-03T07:15:44.501Z,0.30
2023-08-03T07:18:11.081Z,0.20
2023-08-03T07:20:38.482Z,0.17
2023-08-03T07:23:06.860Z,0.30
2023-08-03T07:25:33.613Z,0.50
2023-08-03T07:28:00.598Z,0.10
2023-08-03T07:30:27.197Z,0.13
2023-08-03T07:32:54.341Z,0.20
2023-08-03T07:35:20.833Z,0.17
2023-08-03T07:37:47.216Z,0.20
2023-08-03T07:40:14.532Z,0.30
2023-08-03T07:42:41.415Z,0.20
2023-08-03T07:45:08.420Z,0.22
2023-08-03T07:47:34.942Z,0.10
2023-08-03T07:50:01.517Z,0.17
2023-08-03T07:52:27.946Z,0.30
2023-08-03T07:54:55.961Z,0.20
2023-08-03T07:57:22.576Z,0.20
2023-08-03T07:59:50.945Z,0.20
2023-08-03T08:02:18.130Z,0.20
2023-08-03T08:04:48.410Z,0.20
2023-08-03T08:07:14.865Z,0.20
2023-08-03T08:09:41.282Z,0.10
2023-08-03T08:12:08.043Z,0.25
2023-08-03T08:14:35.144Z,0.10
2023-08-03T08:17:12.877Z,0.10
2023-08-03T08:19:41.815Z,0.28
2023-08-03T08:22:16.516Z,0.20
2023-08-03T08:24:44.619Z,0.20
2023-08-03T08:27:11.526Z,0.20
2023-08-03T08:29:38.775Z,0.25
2023-08-03T08:32:06.180Z,0.17
2023-08-03T08:34:32.841Z,0.25
2023-08-03T08:36:59.499Z,0.10
2023-08-03T08:39:26.342Z,0.17
2023-08-03T08:41:53.052Z,0.15
2023-08-03T08:44:19.681Z,0.15
2023-08-03T08:46:46.374Z,0.20
2023-08-03T09:01:49.723Z,0.20
2023-08-03T09:06:56.955Z,0.20
2023-08-03T09:09:29.180Z,0.30
2023-08-03T09:11:57.292Z,0.13
2023-08-03T09:14:24.483Z,0.20
2023-08-03T09:16:51.178Z,0.32
2023-08-03T09:19:35.645Z,0.25
2023-08-03T09:22:03.826Z,0.17
2023-08-03T09:27:00.202Z,0.25
2023-08-03T09:29:31.911Z,0.20
2023-08-03T09:32:03.508Z,0.20
2023-08-03T09:34:43.659Z,0.10
2023-08-03T09:37:12.174Z,0.25
2023-08-03T09:39:41.814Z,0.20
2023-08-03T09:42:35.270Z,0.30
2023-08-03T09:45:03.042Z,0.10
2023-08-03T09:47:31.074Z,0.20
2023-08-03T09:49:58.541Z,0.10
2023-08-03T09:55:07.938Z,0.10
2023-08-03T09:57:40.312Z,0.10
2023-08-03T10:00:08.326Z,0.10
2023-08-03T10:02:49.808Z,0.35
2023-08-03T10:05:21.476Z,0.13
2023-08-03T10:08:00.799Z,0.10
2023-08-03T10:10:29.705Z,0.10
2023-08-03T10:13:00.815Z,0.10
2023-08-03T10:15:27.454Z,0.10
2023-08-03T10:17:55.335Z,0.10
2023-08-03T10:20:22.722Z,0.10
2023-08-03T10:23:10.236Z,0.38
2023-08-03T10:26:01.816Z,0.20
2023-08-03T10:28:41.040Z,0.10
2023-08-03T10:31:22.170Z,0.00
2023-08-03T10:33:51.931Z,0.10
2023-08-03T10:36:27.548Z,0.10
2023-08-03T10:39:12.605Z,0.10
2023-08-03T10:41:43.043Z,0.28
2023-08-03T10:44:23.241Z,0.10
2023-08-03T10:46:51.506Z,0.10
2023-08-03T10:49:21.588Z,0.10
2023-08-03T10:52:14.631Z,0.10
2023-08-03T10:54:41.241Z,0.10
2023-08-03T10:57:11.937Z,0.08
2023-08-03T10:59:49.339Z,0.10
2023-08-03T11:02:27.375Z,0.00
2023-08-03T11:04:54.524Z,0.10
2023-08-03T11:07:24.348Z,0.08
2023-08-03T11:09:55.154Z,0.00
2023-08-03T11:12:23.592Z,0.00
2023-08-03T11:14:54.598Z,0.00
2023-08-03T11:17:23.759Z,0.10
2023-08-03T11:19:50.760Z,0.03
2023-08-03T11:22:17.693Z,0.00
2023-08-03T11:24:45.218Z,0.10
2023-08-03T11:27:13.899Z,0.00
2023-08-03T11:29:41.678Z,0.10
2023-08-03T11:32:12.862Z,0.03
2023-08-03T11:34:40.471Z,0.00
2023-08-03T11:37:11.593Z,0.10
2023-08-03T11:39:38.020Z,0.10
2023-08-03T11:42:05.350Z,0.10
2023-08-03T11:44:42.315Z,0.10
2023-08-03T11:47:16.735Z,0.10
2023-08-03T11:49:43.205Z,0.10
2023-08-03T11:52:21.334Z,0.13
2023-08-03T11:54:47.837Z,0.20
2023-08-03T11:57:33.227Z,0.10
2023-08-03T11:59:59.918Z,0.10
2023-08-03T12:02:40.323Z,0.20
2023-08-03T12:10:18.202Z,0.20
2023-08-03T12:15:16.182Z,0.10
2023-08-03T12:17:42.700Z,0.20
2023-08-03T12:20:09.885Z,0.20
2023-08-03T12:22:36.886Z,0.10
2023-08-03T12:25:03.600Z,0.10
2023-08-03T12:27:30.045Z,0.10
2023-08-03T12:29:56.494Z,0.20
2023-08-03T12:32:23.141Z,0.20
2023-08-03T12:34:49.617Z,0.20
2023-08-03T12:37:16.822Z,0.20
2023-08-03T12:39:43.493Z,0.20
2023-08-03T12:42:09.878Z,0.20
2023-08-03T12:44:36.283Z,0.25
2023-08-03T12:47:07.970Z,0.30
2023-08-03T12:49:37.360Z,0.10
2023-08-03T12:52:04.078Z,0.30
2023-08-03T12:54:31.523Z,0.20
2023-08-03T12:56:58.017Z,0.17
2023-08-03T12:59:24.656Z,0.20
2023-08-03T13:01:51.662Z,0.20
2023-08-03T13:04:18.051Z,0.10
2023-08-03T13:06:44.663Z,0.38
2023-08-03T13:09:11.223Z,0.20
2023-08-03T13:11:37.608Z,0.25
2023-08-03T13:14:04.023Z,0.30
2023-08-03T13:16:30.437Z,0.20
2023-08-03T13:18:56.976Z,0.20
2023-08-03T13:21:23.466Z,0.38
2023-08-03T13:23:50.384Z,0.22
2023-08-03T13:26:16.971Z,0.30
2023-08-03T13:28:45.423Z,0.30
2023-08-03T13:31:11.839Z,0.22
2023-08-03T13:33:38.293Z,0.30
2023-08-03T13:36:04.842Z,0.43
2023-08-03T13:38:31.364Z,0.30
2023-08-03T13:40:59.064Z,0.20
2023-08-03T13:43:25.543Z,0.45
2023-08-03T13:45:52.012Z,0.20
2023-08-03T13:48:18.448Z,0.22
2023-08-03T13:50:44.902Z,0.20
2023-08-03T13:53:11.338Z,0.30
2023-08-03T13:55:37.847Z,0.40
2023-08-03T13:58:05.545Z,0.20
2023-08-03T14:03:07.708Z,0.10
2023-08-03T14:08:04.018Z,0.10
2023-08-03T14:10:33.523Z,0.20
2023-08-03T14:13:02.234Z,0.25
2023-08-03T14:17:59.529Z,0.20
2023-08-03T14:22:55.615Z,0.30
2023-08-03T14:27:53.464Z,0.13
2023-08-03T14:30:21.251Z,0.20
2023-08-03T14:32:48.523Z,0.20
2023-08-03T14:37:44.771Z,0.20
2023-08-03T14:40:11.838Z,0.20
2023-08-03T14:42:38.366Z,0.10
2023-08-03T14:45:05.498Z,0.10
2023-08-03T14:47:32.152Z,0.20
2023-08-03T14:52:28.177Z,0.20
2023-08-03T14:54:54.678Z,0.20
2023-08-03T14:57:21.206Z,0.20
2023-08-03T14:59:48.214Z,0.20
2023-08-03T15:02:17.666Z,0.40
2023-08-03T15:04:45.791Z,0.20
2023-08-03T15:07:15.527Z,0.20
2023-08-03T15:09:42.876Z,0.20
2023-08-03T15:12:09.724Z,0.30
2023-08-03T15:14:36.664Z,0.20
2023-08-03T15:17:22.526Z,0.25
2023-08-03T15:19:50.344Z,0.20
2023-08-03T15:22:17.216Z,0.30
2023-08-03T15:24:49.172Z,0.30
2023-08-03T15:34:51.703Z,0.40
2023-08-03T15:37:20.780Z,0.47
2023-08-03T15:39:49.671Z,0.40
2023-08-03T15:42:18.180Z,0.32
2023-08-03T15:44:49.239Z,0.45
2023-08-03T15:47:42.957Z,0.60
2023-08-03T15:50:07.221Z,0.40
2023-08-03T15:52:57.689Z,0.50
2023-08-03T15:57:53.412Z,0.50
2023-08-03T16:00:21.045Z,0.47
2023-08-03T16:02:47.561Z,0.50
2023-08-03T16:05:14.123Z,0.50
2023-08-03T16:07:41.355Z,0.50
2023-08-03T16:10:09.474Z,0.40
2023-08-03T16:12:36.062Z,0.43
2023-08-03T16:15:02.603Z,0.43
2023-08-03T16:17:29.003Z,0.52
2023-08-03T16:19:55.454Z,0.55
2023-08-03T16:22:21.950Z,0.60
2023-08-03T16:24:48.365Z,0.60
2023-08-03T16:27:14.755Z,0.50
2023-08-03T16:29:44.972Z,0.52
2023-08-03T16:32:16.635Z,0.57
2023-08-03T16:37:12.807Z,0.50
2023-08-03T16:39:39.319Z,0.60
2023-08-03T16:42:06.301Z,0.70
2023-08-03T16:44:32.706Z,0.70
2023-08-03T16:46:59.079Z,0.70
2023-08-03T16:49:25.550Z,0.70
2023-08-03T16:51:54.128Z,0.40
2023-08-03T16:54:20.764Z,0.65
2023-08-03T16:56:47.501Z,0.75
2023-08-03T16:59:14.142Z,0.73
2023-08-03T17:01:40.632Z,0.70
2023-08-03T17:04:07.170Z,0.77
2023-08-03T17:06:36.499Z,0.68
2023-08-03T17:09:03.811Z,0.75
2023-08-03T17:11:31.340Z,0.80
2023-08-03T17:13:57.804Z,0.65
2023-08-03T17:16:24.438Z,0.60
2023-08-03T17:18:51.001Z,0.50
2023-08-03T17:21:18.316Z,0.75
2023-08-03T17:23:44.850Z,0.65
2023-08-03T17:26:11.363Z,0.10
2023-08-03T17:28:37.831Z,0.10
2023-08-03T17:31:05.074Z,0.15
2023-08-03T17:33:31.958Z,0.03
2023-08-03T17:35:58.506Z,0.10
2023-08-03T17:38:25.124Z,0.10
2023-08-03T17:40:52.693Z,0.10
2023-08-03T17:43:19.295Z,0.10
2023-08-03T17:45:45.792Z,0.08
2023-08-03T17:48:12.258Z,0.00
2023-08-03T17:50:38.672Z,0.10
2023-08-03T17:53:05.156Z,0.10
2023-08-03T17:55:31.523Z,0.13
2023-08-03T17:57:58.001Z,0.10
2023-08-03T18:00:24.520Z,0.10
2023-08-03T18:02:51.111Z,0.30
2023-08-03T18:05:17.673Z,0.13
2023-08-03T18:07:44.847Z,0.10
2023-08-03T18:10:11.427Z,0.10
2023-08-03T18:12:37.908Z,0.20
2023-08-03T18:15:05.206Z,0.20
2023-08-03T18:17:32.141Z,0.20
2023-08-03T18:19:58.806Z,0.30
2023-08-03T18:22:26.192Z,0.10
2023-08-03T18:24:52.713Z,0.20
2023-08-03T18:27:19.812Z,0.10
2023-08-03T18:29:46.639Z,0.10
2023-08-03T18:32:13.044Z,0.30
2023-08-03T18:34:39.762Z,0.20
2023-08-03T18:37:06.343Z,0.15
2023-08-03T18:39:32.887Z,0.20
2023-08-03T18:41:59.430Z,0.20
2023-08-03T18:44:25.811Z,0.30
2023-08-03T18:46:52.358Z,0.20
2023-08-03T18:49:18.912Z,0.10
2023-08-03T18:51:45.291Z,0.10
2023-08-03T18:54:11.734Z,0.22
2023-08-03T18:56:38.177Z,0.30
2023-08-03T18:59:05.538Z,0.30
2023-08-03T19:01:32.705Z,0.30
2023-08-03T19:04:00.413Z,0.25
2023-08-03T19:06:27.367Z,0.40
2023-08-03T19:08:54.272Z,0.30
2023-08-03T19:11:20.945Z,0.40
2023-08-03T19:13:47.715Z,0.55
2023-08-03T19:16:14.245Z,0.40
2023-08-03T19:18:42.696Z,0.40
2023-08-03T19:21:09.484Z,0.43
2023-08-03T19:23:35.915Z,0.38
2023-08-03T19:26:02.275Z,0.40
2023-08-03T19:28:28.729Z,0.40
2023-08-03T19:30:56.838Z,0.30
2023-08-03T19:33:23.878Z,0.25
2023-08-03T19:35:50.537Z,0.40
2023-08-03T19:38:17.880Z,0.32
2023-08-03T19:40:46.107Z,0.50
2023-08-03T19:43:12.631Z,0.30
2023-08-03T19:45:39.151Z,0.25
2023-08-03T19:48:06.082Z,0.30
2023-08-03T19:50:33.161Z,0.20
2023-08-03T19:55:29.870Z,0.40
2023-08-03T20:10:29.537Z,0.43
2023-08-03T20:15:25.288Z,0.30
2023-08-03T20:18:21.016Z,0.20
2023-08-03T20:20:38.412Z,0.40
2023-08-03T20:23:04.978Z,0.40
2023-08-03T20:25:31.384Z,0.30
2023-08-03T20:27:57.926Z,0.25
2023-08-03T20:30:24.500Z,0.30
2023-08-03T20:32:51.038Z,0.30
2023-08-03T20:35:17.668Z,0.28
2023-08-03T20:37:44.288Z,0.20
2023-08-03T20:40:11.344Z,0.10
2023-08-03T20:45:08.233Z,0.30
2023-08-03T20:47:54.319Z,0.20
2023-08-03T20:52:50.085Z,0.20
2023-08-03T20:55:16.529Z,0.30
2023-08-03T20:57:42.951Z,0.30
2023-08-03T21:00:09.890Z,0.20
2023-08-03T21:02:36.380Z,0.30
2023-08-03T21:05:04.624Z,0.38
2023-08-03T21:07:31.354Z,0.28
2023-08-03T21:12:27.109Z,0.60
2023-08-03T21:14:53.619Z,0.25
2023-08-03T21:17:20.227Z,0.20
2023-08-03T21:19:49.449Z,0.30
2023-08-03T21:22:19.617Z,0.38
2023-08-03T21:24:46.282Z,0.30
2023-08-03T21:27:12.906Z,0.30
2023-08-03T21:29:39.396Z,0.43
2023-08-03T21:32:06.329Z,0.40
2023-08-03T21:34:33.904Z,0.40
2023-08-03T21:37:00.307Z,0.47
2023-08-03T21:39:26.712Z,0.40
2023-08-03T21:41:53.401Z,0.45
2023-08-03T21:44:19.843Z,0.45
2023-08-03T21:46:46.278Z,0.40
2023-08-03T21:49:12.856Z,0.52
2023-08-03T21:51:39.537Z,0.65
2023-08-03T21:54:05.967Z,0.70
2023-08-03T21:56:33.447Z,0.30
2023-08-03T21:58:59.923Z,0.40
2023-08-03T22:01:28.073Z,0.60
2023-08-03T22:03:55.336Z,0.52
2023-08-03T22:06:22.179Z,0.60
2023-08-03T22:08:49.443Z,0.60
2023-08-03T22:11:17.403Z,0.63
2023-08-03T22:13:44.971Z,0.68
2023-08-03T22:16:12.233Z,0.70
2023-08-03T22:18:38.885Z,0.75
2023-08-03T22:21:06.938Z,0.52
2023-08-03T22:23:33.501Z,0.60
2023-08-03T22:26:00.108Z,0.90
2023-08-03T22:28:26.534Z,0.75
2023-08-03T22:30:52.985Z,0.90
2023-08-03T22:33:19.857Z,0.73
2023-08-03T22:35:46.311Z,0.75
2023-08-03T22:38:12.751Z,0.70
2023-08-03T22:40:39.198Z,0.77
2023-08-03T22:43:05.676Z,0.90
2023-08-03T22:45:32.105Z,0.70
2023-08-03T22:48:11.970Z,0.68
2023-08-03T22:50:39.618Z,1.05
2023-08-03T22:53:06.290Z,0.90
2023-08-03T22:55:32.784Z,0.80
2023-08-03T22:58:00.258Z,1.02
2023-08-03T23:00:26.706Z,1.00
2023-08-03T23:02:53.259Z,0.80
2023-08-03T23:05:19.732Z,0.93
2023-08-03T23:07:46.207Z,0.77
2023-08-03T23:10:12.696Z,0.80
2023-08-03T23:12:40.341Z,0.80
2023-08-03T23:15:07.480Z,1.00
2023-08-03T23:17:34.274Z,0.90
2023-08-03T23:20:00.840Z,0.95
2023-08-03T23:22:28.084Z,0.88
2023-08-03T23:24:54.759Z,1.00
2023-08-03T23:27:21.491Z,0.98
2023-08-03T23:29:48.524Z,1.05
2023-08-03T23:32:15.219Z,0.95
2023-08-03T23:34:41.674Z,1.10
2023-08-03T23:37:08.099Z,0.90
2023-08-03T23:39:34.472Z,0.70
2023-08-03T23:42:00.999Z,1.10
2023-08-03T23:44:27.488Z,0.90
2023-08-03T23:46:53.915Z,0.93
2023-08-03T23:49:20.298Z,0.77
2023-08-03T23:51:46.924Z,1.15
2023-08-03T23:54:13.452Z,0.82
2023-08-03T23:56:39.836Z,0.80
2023-08-03T23:59:06.408Z,1.13
